Airfield :
LOGIN :

Register | Disclaimer

   EN    FR    IT 

 










Legend :    VFR   Marginal VFR   IFR   Intensive IFR   Very Intensive IFR
Visi :
Ceiling :
>= 8 km
>= 3000ft
5 to 8 km
1000 to 3000 ft
1500m to 5 km
500 to 1000 ft
800 to 1500m
200 to 500 ft
< 800m
< 200 ft
Symbols :   Thunderstorms  Fog  Heavy snow  Heavy precipitations  Wind > 20 kt
SIGMETs :     Misc.  Thunderstorms  Icing  Turbulence  Mountain Waves  Volcanic Ashes






- Airport Elevation : 1860 ft
- IATA code : GRX


LEGR - Granada

CURRENT METAR :
  • 060730Z 00000KT CAVOK 26/14 Q1016

EXPIRED METARs :
  • 060700Z 00000KT CAVOK 23/13 Q1016
  • 060630Z 00000KT CAVOK 23/13 Q1016
  • 060600Z VRB01KT CAVOK 20/13 Q1015
  • 060530Z 22001KT CAVOK 20/13 Q1015
  • 060500Z 20003KT CAVOK 20/13 Q1015

TAF TAF LEGR
Valid from the 06 at 03:00 until the 07 at 03:00 UTC


060200Z 0603/0703 11004KT CAVOK TX39/0615Z TN20/0605Z
BECMG 0610/0612 17010KT
BECMG 0619/0622 VRB02KT



MET'MAP, your aeronautical weather chart ! - Copyright ORBIFLY December 2007 - Disclaimer

ORBIFLY MET'MAP TEAM :

Programming & Development : Alexandra Zaïnal
Concept & original design : Baudouin d'Aumeries
Assistance for programming : Marc-Olivier Méhu
Technical & hardware support : Manuel Goepfert

Contact : metmap@orbifly.com




SOURCES & CREDITS :

   NOAA